Map

Track Data

SID SEASON NUMBER BASIN SUBBASIN NAME ISO_TIME NATURE LAT LON WMO_WIND WMO_PRES WMO_AGENCY TRACK_TYPE DIST2LAND LANDFALL IFLAG USA_AGENCY USA_ATCF_ID USA_LAT USA_LON USA_RECORD USA_STATUS USA_WIND USA_PRES USA_SSHS USA_R34_NE USA_R34_SE USA_R34_SW USA_R34_NW USA_R50_NE USA_R50_SE USA_R50_SW USA_R50_NW USA_R64_NE USA_R64_SE USA_R64_SW USA_R64_NW USA_POCI USA_ROCI USA_RMW USA_EYE TOKYO_LAT TOKYO_LON TOKYO_GRADE TOKYO_WIND TOKYO_PRES TOKYO_R50_DIR TOKYO_R50_LONG TOKYO_R50_SHORT TOKYO_R30_DIR TOKYO_R30_LONG TOKYO_R30_SHORT TOKYO_LAND CMA_LAT CMA_LON CMA_CAT CMA_WIND CMA_PRES HKO_LAT HKO_LON HKO_CAT HKO_WIND HKO_PRES NEWDELHI_LAT NEWDELHI_LON NEWDELHI_GRADE NEWDELHI_WIND NEWDELHI_PRES NEWDELHI_CI NEWDELHI_DP NEWDELHI_POCI REUNION_LAT REUNION_LON REUNION_TYPE REUNION_WIND REUNION_PRES REUNION_TNUM REUNION_CI REUNION_RMW REUNION_R34_NE REUNION_R34_SE REUNION_R34_SW REUNION_R34_NW REUNION_R50_NE REUNION_R50_SE REUNION_R50_SW REUNION_R50_NW REUNION_R64_NE REUNION_R64_SE REUNION_R64_SW REUNION_R64_NW BOM_LAT BOM_LON BOM_TYPE BOM_WIND BOM_PRES BOM_TNUM BOM_CI BOM_RMW BOM_R34_NE BOM_R34_SE BOM_R34_SW BOM_R34_NW BOM_R50_NE BOM_R50_SE BOM_R50_SW BOM_R50_NW BOM_R64_NE BOM_R64_SE BOM_R64_SW BOM_R64_NW BOM_ROCI BOM_POCI BOM_EYE BOM_POS_METHOD BOM_PRES_METHOD NADI_LAT NADI_LON NADI_CAT NADI_WIND NADI_PRES WELLINGTON_LAT WELLINGTON_LON WELLINGTON_WIND WELLINGTON_PRES DS824_LAT DS824_LON DS824_STAGE DS824_WIND DS824_PRES TD9636_LAT TD9636_LON TD9636_STAGE TD9636_WIND TD9636_PRES TD9635_LAT TD9635_LON TD9635_WIND TD9635_PRES TD9635_ROCI NEUMANN_LAT NEUMANN_LON NEUMANN_CLASS NEUMANN_WIND NEUMANN_PRES MLC_LAT MLC_LON MLC_CLASS MLC_WIND MLC_PRES USA_GUST BOM_GUST BOM_GUST_PER REUNION_GUST REUNION_GUST_PER USA_SEAHGT USA_SEARAD_NE USA_SEARAD_SE USA_SEARAD_SW USA_SEARAD_NW STORM_SPEED STORM_DIR
1977267N11254 1977 90 EP MM GLENDA 1977-09-23 21:00:00 NR 10.7000 -106.500 main 909 903 __________O___ -1 10.7000 -106.500 2 60 3 317
1977267N11254 1977 90 EP MM GLENDA 1977-09-24 00:00:00 TS 10.8000 -106.600 35 hurdat_epa main 903 874 O________OO___ hurdat_epa EP071977 10.7000 -106.500 TS 35 0 10.7000 -106.500 TC 35 11.0000 -106.800 2 60 8 319
1977267N11254 1977 90 EP MM GLENDA 1977-09-24 03:00:00 TS 11.2810 -107.009 main 869 839 P________PP___ EP071977 11.2402 -106.967 TS 35 0 11.2402 -106.967 TC 35 11.3899 -107.119 2 53 13 322
1977267N11254 1977 90 EP MM GLENDA 1977-09-24 06:00:00 TS 11.8172 -107.413 35 hurdat_epa main 839 805 O________OP___ hurdat_epa EP071977 11.8000 -107.400 TS 35 0 11.8000 -107.400 TC 35 11.8689 -107.450 2 47 14 326
1977267N11254 1977 90 EP MM GLENDA 1977-09-24 09:00:00 TS 12.3966 -107.774 main 805 771 P________PP___ EP071977 12.3924 -107.773 TS 35 0 12.3924 -107.773 TC 35 12.4134 -107.781 2 41 14 330
1977267N11254 1977 90 EP MM GLENDA 1977-09-24 12:00:00 TS 13.0000 -108.100 35 hurdat_epa main 771 734 O________OO___ hurdat_epa EP071977 13.0000 -108.100 TS 35 0 13.0000 -108.100 TC 35 13.0000 -108.100 2 35 13 333
1977267N11254 1977 90 EP MM GLENDA 1977-09-24 15:00:00 TS 13.5836 -108.405 main 734 696 P________PP___ EP071977 13.5925 -108.415 TS 35 0 13.5925 -108.415 TC 35 13.5482 -108.367 2 33 13 334
1977267N11254 1977 90 EP MM GLENDA 1977-09-24 18:00:00 TS 14.1874 -108.684 35 hurdat_epa main 696 657 O________OP___ hurdat_epa EP071977 14.2000 -108.700 TS 35 0 14.2000 -108.700 TC 35 14.1372 -108.622 2 32 13 337
1977267N11254 1977 90 EP MM GLENDA 1977-09-24 21:00:00 TS 14.8004 -108.933 main 657 623 P________PP___ EP071977 14.8049 -108.943 TS 30 -1 14.8049 -108.943 TC 30 14.7825 -108.892 2 31 14 339
1977267N11254 1977 90 EP MM GLENDA 1977-09-25 00:00:00 TS 15.5000 -109.200 25 hurdat_epa main 623 584 O________OO___ hurdat_epa EP071977 15.5000 -109.200 TD 25 -1 15.5000 -109.200 TC 25 15.5000 -109.200 1 30 17 340
1977267N11254 1977 90 EP MM GLENDA 1977-09-25 03:00:00 TS 16.3686 -109.518 main 577 556 P________PP___ EP071977 16.3699 -109.513 TD 25 -1 16.3699 -109.513 TC 25 16.3634 -109.541 1 30 19 339
1977267N11254 1977 90 EP MM GLENDA 1977-09-25 06:00:00 TS 17.2973 -109.906 25 hurdat_epa main 553 526 O________OP___ hurdat_epa EP071977 17.3000 -109.900 TD 25 -1 17.3000 -109.900 TC 25 17.2865 -109.930 1 30 20 336
1977267N11254 1977 90 EP MM GLENDA 1977-09-25 09:00:00 TS 18.2061 -110.360 main 527 446 P________PP___ EP071977 18.2098 -110.355 TD 25 -1 18.2098 -110.355 TC 25 18.1913 -110.379 1 30 20 331
1977267N11254 1977 90 EP MM GLENDA 1977-09-25 12:00:00 TS 19.0000 -110.900 25 hurdat_epa main 446 406 O________OO___ hurdat_epa EP071977 19.0000 -110.900 TD 25 -1 19.0000 -110.900 TC 25 19.0000 -110.900 1 30 18 321
1977267N11254 1977 90 EP MM GLENDA 1977-09-25 15:00:00 TS 19.5620 -111.522 main 400 390 P________PP___ EP071977 19.5524 -111.521 TD 25 -1 19.5524 -111.521 TC 25 19.6004 -111.525 1 30 16 310
1977267N11254 1977 90 EP MM GLENDA 1977-09-25 18:00:00 TS 20.0197 -112.203 25 hurdat_epa main 396 390 O________OP___ hurdat_epa EP071977 20.0000 -112.200 TD 25 -1 20.0000 -112.200 TC 25 20.0985 -112.214 1 30 16 306
1977267N11254 1977 90 EP MM GLENDA 1977-09-25 21:00:00 TS 20.5034 -112.905 main 402 402 P________PP___ EP071977 20.4924 -112.900 TD 25 -1 20.4924 -112.900 TC 25 20.5472 -112.922 1 30 16 307
1977267N11254 1977 90 EP MM GLENDA 1977-09-26 00:00:00 TS 21.0000 -113.600 25 hurdat_epa main 427 415 O________OO___ hurdat_epa EP071977 21.0000 -113.600 TD 25 -1 21.0000 -113.600 TC 25 21.0000 -113.600 1 30 17 309
1977267N11254 1977 90 EP MM GLENDA 1977-09-26 03:00:00 TS 21.5379 -114.285 main 421 406 P________PP___ EP071977 21.5425 -114.288 TD 25 -1 21.5425 -114.288 TC 25 21.5196 -114.274 1 28 16 312
1977267N11254 1977 90 EP MM GLENDA 1977-09-26 06:00:00 TS 22.0911 -114.900 25 hurdat_epa main 407 406 O________OP___ hurdat_epa EP071977 22.1000 -114.900 TD 25 -1 22.1000 -114.900 TC 25 22.0555 -114.901 1 27 15 316
1977267N11254 1977 90 EP MM GLENDA 1977-09-26 09:00:00 TS 22.6306 -115.431 main 408 403 P________PP___ EP071977 22.6349 -115.433 TD 25 -1 22.6349 -115.433 TC 25 22.6136 -115.427 1 26 14 323
1977267N11254 1977 90 EP MM GLENDA 1977-09-26 12:00:00 TS 23.2000 -115.800 25 hurdat_epa main 406 398 O________OO___ hurdat_epa EP071977 23.2000 -115.800 TD 25 -1 23.2000 -115.800 TC 25 23.2000 -115.800 1 25 13 337
1977267N11254 1977 90 EP MM GLENDA 1977-09-26 15:00:00 TS 23.8316 -115.983 main 400 341 P________PP___ EP071977 23.8348 -115.983 TD 25 -1 23.8348 -115.983 TC 25 23.8189 -115.984 1 25 13 352
1977267N11254 1977 90 EP MM GLENDA 1977-09-26 18:00:00 TS 24.4944 -116.002 25 hurdat_epa main 341 278 O________OP___ hurdat_epa EP071977 24.5000 -116.000 TD 25 -1 24.5000 -116.000 TC 25 24.4644 -116.011 1 25 13 2
1977267N11254 1977 90 EP MM GLENDA 1977-09-26 21:00:00 TS 25.1609 -115.931 main 268 209 P________PP___ EP071977 25.1650 -115.930 TD 25 -1 25.1650 -115.930 TC 25 25.1278 -115.933 1 25 13 8
1977267N11254 1977 90 EP MM GLENDA 1977-09-27 00:00:00 TS 25.8000 -115.800 25 hurdat_epa main 209 163 O________OO___ hurdat_epa EP071977 25.8000 -115.800 TD 25 -1 25.8000 -115.800 TC 25 25.8000 -115.800 1 25 12 9
1977267N11254 1977 90 EP MM GLENDA 1977-09-27 03:00:00 TS 26.3799 -115.715 main 156 107 P________P____ EP071977 26.3799 -115.715 TD 25 -1 26.3799 -115.715 TC 25 1 11 9
1977267N11254 1977 90 EP MM GLENDA 1977-09-27 06:00:00 ET 26.9000 -115.600 25 hurdat_epa main 107 59 O________O____ hurdat_epa EP071977 26.9000 -115.600 ET 25 -4 26.9000 -115.600 25 1 10 15
1977267N11254 1977 90 EP MM GLENDA 1977-09-27 09:00:00 ET 27.3651 -115.420 main 51 19 P________P____ EP071977 27.3651 -115.420 ET 25 -4 27.3651 -115.420 25 1 10 22
1977267N11254 1977 90 EP MM GLENDA 1977-09-27 12:00:00 ET 27.8000 -115.200 25 hurdat_epa main 19 O________O____ hurdat_epa EP071977 27.8000 -115.200 ET 25 -4 27.8000 -115.200 25 10 24

About IBTrACS Database

This database is a web-friendly format of International Best Track Archive for Climate Stewardship (IBTrACS), a global best track data archive curated by NOAA dating back to 1842.

Updated: 2021-11-26